Time;durP1;ratioP1;P1;durP2;ratioP2;P2;SDS_P1;SDS_P2;PMS_P1;PMS_P2;Temp;Humidity;BMP_temperature;BMP_pressure;BME280_temperature;BME280_humidity;BME280_pressure;Samples;Min_cycle;Max_cycle;Signal;HPM_P1;HPM_P2
2022/12/19 00:01:21;;;;;;;46.75;34.83;;;1.00;99.90;;;;;;4942134;28;89723;-33
2022/12/19 00:03:58;;;;;;;49.17;34.75;;;1.10;99.90;;;;;;4942076;28;89402;-34
2022/12/19 00:06:24;;;;;;;43.67;31.50;;;1.00;99.90;;;;;;4940837;28;93444;-31
2022/12/19 00:08:52;;;;;;;48.55;34.63;;;1.10;99.90;;;;;;4940399;28;91025;-29
2022/12/19 00:11:20;;;;;;;42.43;30.30;;;1.10;99.90;;;;;;4941345;28;90505;-30
2022/12/19 00:13:46;;;;;;;46.10;33.38;;;1.10;99.90;;;;;;4942348;28;89447;-31
2022/12/19 00:16:18;;;;;;;37.28;31.33;;;1.10;99.90;;;;;;4941538;28;90427;-32
2022/12/19 00:18:45;;;;;;;47.10;33.70;;;1.10;99.90;;;;;;4941104;28;89772;-33
2022/12/19 00:21:16;;;;;;;43.90;33.40;;;1.20;99.90;;;;;;4941469;28;89849;-32
2022/12/19 00:23:43;;;;;;;45.70;33.25;;;1.10;99.90;;;;;;4941194;28;88568;-30
2022/12/19 00:26:16;;;;;;;53.25;32.80;;;1.20;99.90;;;;;;4941502;28;89916;-30
2022/12/19 00:28:44;;;;;;;45.88;31.95;;;1.20;99.90;;;;;;4940829;28;89660;-33
2022/12/19 00:31:10;;;;;;;44.45;31.77;;;1.10;99.90;;;;;;4941138;28;90143;-31
2022/12/19 00:33:36;;;;;;;49.58;34.70;;;1.10;99.90;;;;;;4927282;28;89282;-31
2022/12/19 00:36:09;;;;;;;47.47;30.90;;;1.10;99.90;;;;;;4940710;28;90817;-29
2022/12/19 00:38:34;;;;;;;47.17;33.53;;;1.20;99.90;;;;;;4940871;28;89278;-34
2022/12/19 00:41:08;;;;;;;50.75;33.00;;;1.10;99.90;;;;;;4941143;28;89324;-32
2022/12/19 00:43:33;;;;;;;44.30;32.72;;;1.10;99.90;;;;;;4940616;28;88574;-32
2022/12/19 00:46:02;;;;;;;44.92;35.53;;;1.10;99.90;;;;;;4940909;28;90417;-30
2022/12/19 00:48:28;;;;;;;50.50;35.17;;;1.20;99.90;;;;;;4940916;28;89782;-33
2022/12/19 00:51:10;;;;;;;44.10;32.97;;;1.20;99.90;;;;;;4939232;28;89239;-31
2022/12/19 00:53:36;;;;;;;47.85;33.50;;;1.20;99.90;;;;;;4940562;28;90094;-31
2022/12/19 00:56:07;;;;;;;43.60;32.15;;;1.20;99.90;;;;;;4940076;28;90578;-34
2022/12/19 00:58:33;;;;;;;37.20;29.30;;;1.20;99.90;;;;;;4939531;28;90778;-30
2022/12/19 01:01:08;;;;;;;45.30;34.13;;;1.20;99.90;;;;;;4941112;28;90480;-31
2022/12/19 01:03:34;;;;;;;53.33;37.92;;;1.20;99.90;;;;;;4940208;28;88237;-32
2022/12/19 01:06:00;;;;;;;47.72;34.83;;;1.20;99.90;;;;;;4940257;28;90221;-34
2022/12/19 01:08:26;;;;;;;45.38;34.05;;;1.20;99.90;;;;;;4940634;28;89411;-30
2022/12/19 01:10:52;;;;;;;51.08;37.05;;;1.30;99.90;;;;;;4934017;28;90064;-31
2022/12/19 01:13:19;;;;;;;48.47;34.95;;;1.20;99.90;;;;;;4921570;28;89044;-34
2022/12/19 01:15:45;;;;;;;43.42;29.75;;;1.20;99.90;;;;;;4924507;28;89999;-30
2022/12/19 01:18:11;;;;;;;44.45;31.98;;;1.20;99.90;;;;;;4940491;28;88729;-32
2022/12/19 01:20:41;;;;;;;58.58;34.25;;;1.30;99.90;;;;;;4926796;28;89575;-31
2022/12/19 01:23:09;;;;;;;51.35;34.25;;;1.30;99.90;;;;;;4940363;28;89747;-31
2022/12/19 01:25:36;;;;;;;48.38;31.98;;;1.30;99.90;;;;;;4940561;28;90086;-30
2022/12/19 01:28:02;;;;;;;46.85;34.72;;;1.40;99.90;;;;;;4930360;28;90224;-29
2022/12/19 01:30:28;;;;;;;48.28;35.72;;;1.40;99.90;;;;;;4934625;28;90810;-32
2022/12/19 01:32:55;;;;;;;49.50;33.60;;;1.40;99.90;;;;;;4940996;28;89758;-31
2022/12/19 01:35:21;;;;;;;39.45;29.85;;;1.40;99.90;;;;;;4939900;28;88866;-31
2022/12/19 01:37:47;;;;;;;36.05;27.27;;;1.40;99.90;;;;;;4939412;28;89778;-32
2022/12/19 01:40:13;;;;;;;48.97;34.25;;;1.50;99.90;;;;;;4940796;28;89107;-33
2022/12/19 01:42:38;;;;;;;44.97;32.47;;;1.50;99.90;;;;;;4939791;28;88463;-32
2022/12/19 01:45:07;;;;;;;44.03;31.00;;;1.40;99.90;;;;;;4931182;28;90282;-31
2022/12/19 01:47:51;;;;;;;;;;;1.40;99.90;;;;;;4935652;28;90571;-32
2022/12/19 01:50:28;;;;;;;52.60;35.75;;;1.50;99.90;;;;;;4941748;28;90283;-33
2022/12/19 01:52:55;;;;;;;47.10;32.92;;;1.50;99.90;;;;;;4940307;28;89446;-34
2022/12/19 01:55:21;;;;;;;46.15;31.92;;;1.40;99.90;;;;;;4940216;28;90274;-33
2022/12/19 01:57:47;;;;;;;46.80;34.20;;;1.40;99.90;;;;;;4939577;28;89487;-30
2022/12/19 02:00:13;;;;;;;49.22;34.63;;;1.50;99.90;;;;;;4939976;28;88244;-33
2022/12/19 02:02:45;;;;;;;46.72;33.50;;;1.60;99.90;;;;;;4939566;28;89749;-32
2022/12/19 02:05:11;;;;;;;42.20;31.17;;;1.60;99.90;;;;;;4940576;28;90622;-30
2022/12/19 02:07:39;;;;;;;46.50;34.90;;;1.70;99.90;;;;;;4939412;28;89847;-34
2022/12/19 02:10:05;;;;;;;46.35;34.05;;;1.60;99.90;;;;;;4939552;28;90099;-33
2022/12/19 02:12:34;;;;;;;50.90;37.50;;;1.60;99.90;;;;;;4938854;28;89756;-32
2022/12/19 02:15:01;;;;;;;54.40;37.30;;;1.60;99.90;;;;;;4939651;28;90185;-31
2022/12/19 02:18:01;;;;;;;46.70;31.67;;;1.60;99.90;;;;;;4939453;28;89671;-32
2022/12/19 02:20:49;;;;;;;49.13;34.40;;;1.60;99.90;;;;;;4926318;28;89956;-31
2022/12/19 02:23:36;;;;;;;50.50;34.65;;;1.70;99.90;;;;;;4939918;28;89643;-30
2022/12/19 02:26:42;;;;;;;51.70;35.22;;;1.70;99.90;;;;;;4939320;28;91012;-30
2022/12/19 02:29:26;;;;;;;49.05;33.15;;;1.70;99.90;;;;;;4939073;28;89550;-33
2022/12/19 02:31:57;;;;;;;48.05;36.60;;;1.70;99.90;;;;;;4939086;28;89746;-30
2022/12/19 02:34:34;;;;;;;40.78;31.92;;;1.60;99.90;;;;;;4939039;28;88649;-32
2022/12/19 02:37:07;;;;;;;45.97;34.35;;;1.70;99.90;;;;;;4938936;28;90293;-32
2022/12/19 02:39:38;;;;;;;48.30;33.92;;;1.70;99.90;;;;;;4938906;28;90461;-31
2022/12/19 02:42:06;;;;;;;46.28;35.83;;;1.70;99.90;;;;;;4939373;28;92181;-32
2022/12/19 02:44:50;;;;;;;56.33;38.50;;;1.80;99.90;;;;;;4938663;28;88342;-33
2022/12/19 02:47:18;;;;;;;49.92;36.97;;;1.70;99.90;;;;;;4939332;28;90598;-32
2022/12/19 02:49:43;;;;;;;53.97;37.47;;;1.60;99.90;;;;;;4939204;28;89287;-31
2022/12/19 02:52:32;;;;;;;52.20;37.53;;;1.60;99.90;;;;;;4938786;28;89761;-31
2022/12/19 02:55:03;;;;;;;;;;;1.60;99.90;;;;;;4939952;28;89584;-30
2022/12/19 02:57:32;;;;;;;60.78;36.53;;;1.60;99.90;;;;;;4940512;28;89868;-34
2022/12/19 03:00:24;;;;;;;49.50;35.40;;;1.60;99.90;;;;;;4939057;28;90259;-32
2022/12/19 03:03:22;;;;;;;55.13;37.00;;;1.60;99.90;;;;;;4939333;28;89576;-32
2022/12/19 03:06:00;;;;;;;;;;;1.60;99.90;;;;;;4939354;28;89483;-31
2022/12/19 03:08:30;;;;;;;50.55;34.38;;;1.60;99.90;;;;;;4941116;28;89871;-31
2022/12/19 03:11:02;;;;;;;53.75;37.13;;;1.60;99.90;;;;;;4939131;28;89408;-31
2022/12/19 03:14:01;;;;;;;47.50;35.55;;;1.60;99.90;;;;;;4939277;28;89639;-34
2022/12/19 03:16:27;;;;;;;62.65;39.60;;;1.60;99.90;;;;;;4938841;28;89737;-34
2022/12/19 03:18:55;;;;;;;60.10;42.30;;;1.60;99.90;;;;;;4932560;28;89678;-34
2022/12/19 03:21:27;;;;;;;48.85;35.92;;;1.60;99.90;;;;;;4932509;28;90323;-32
2022/12/19 03:23:54;;;;;;;51.33;38.22;;;1.60;99.90;;;;;;4939088;28;89498;-32
2022/12/19 03:26:24;;;;;;;50.85;38.88;;;1.70;99.90;;;;;;4938698;28;88987;-30
2022/12/19 03:29:01;;;;;;;55.72;40.88;;;1.70;99.90;;;;;;4938054;28;89648;-32
2022/12/19 03:31:30;;;;;;;51.08;36.28;;;1.70;99.90;;;;;;4937302;28;92038;-31
2022/12/19 03:34:19;;;;;;;60.30;39.97;;;1.70;99.90;;;;;;4938380;28;89420;-30
2022/12/19 03:36:48;;;;;;;58.25;38.90;;;1.80;99.90;;;;;;4938286;28;88897;-31
2022/12/19 03:39:16;;;;;;;50.78;36.50;;;1.80;99.90;;;;;;4938142;28;90525;-31
2022/12/19 03:44:32;;;;;;;55.00;39.65;;;1.90;99.90;;;;;;4939003;28;89503;-32
2022/12/19 03:47:07;;;;;;;58.75;41.05;;;1.90;99.90;;;;;;4943072;28;89631;-31
2022/12/19 03:49:33;;;;;;;55.83;40.28;;;1.90;99.90;;;;;;4942576;28;89453;-33
2022/12/19 03:52:28;;;;;;;58.72;40.25;;;1.90;99.90;;;;;;4941328;28;89673;-34
2022/12/19 03:55:20;;;;;;;53.88;37.40;;;2.00;99.90;;;;;;4942169;28;88314;-32
2022/12/19 03:57:58;;;;;;;62.97;41.05;;;2.00;99.90;;;;;;4940894;28;90039;-31
2022/12/19 04:00:24;;;;;;;50.53;38.55;;;2.10;99.90;;;;;;4942249;28;92337;-38
2022/12/19 04:02:53;;;;;;;55.67;39.72;;;2.20;99.90;;;;;;4942734;28;89375;-32
2022/12/19 04:05:24;;;;;;;53.83;38.30;;;2.30;99.90;;;;;;4941877;28;89882;-30
2022/12/19 04:07:53;;;;;;;45.17;33.78;;;2.30;99.90;;;;;;4942211;28;88290;-31
2022/12/19 04:10:22;;;;;;;57.80;41.38;;;2.30;99.90;;;;;;4941897;28;90426;-31
2022/12/19 04:12:57;;;;;;;59.90;37.10;;;2.30;99.90;;;;;;4941718;28;88926;-34
2022/12/19 04:15:37;;;;;;;62.33;43.10;;;2.40;99.90;;;;;;4941100;28;89987;-36
2022/12/19 04:18:05;;;;;;;67.38;42.70;;;2.30;99.90;;;;;;4941278;28;89007;-34
2022/12/19 04:20:33;;;;;;;66.60;42.22;;;2.40;99.90;;;;;;4941148;28;90336;-30
2022/12/19 04:23:06;;;;;;;55.38;40.15;;;2.40;99.90;;;;;;4940661;28;91194;-32
2022/12/19 04:25:39;;;;;;;56.20;39.60;;;2.50;99.90;;;;;;4940901;28;90874;-31
2022/12/19 04:28:17;;;;;;;51.83;36.33;;;2.50;99.90;;;;;;4940995;28;89649;-33
2022/12/19 04:30:44;;;;;;;56.08;38.80;;;2.60;99.90;;;;;;4941408;28;90251;-31
2022/12/19 04:33:10;;;;;;;58.70;38.10;;;2.60;99.90;;;;;;4941105;28;90556;-32
2022/12/19 04:35:36;;;;;;;62.85;43.88;;;2.60;99.90;;;;;;4940956;28;89282;-32
2022/12/19 04:38:02;;;;;;;59.38;42.65;;;2.70;99.90;;;;;;4940497;28;88731;-31
2022/12/19 04:40:27;;;;;;;63.92;39.63;;;2.80;99.90;;;;;;4940297;28;91032;-31
2022/12/19 04:42:53;;;;;;;47.65;36.75;;;2.80;99.90;;;;;;4941636;28;89744;-30
2022/12/19 04:45:19;;;;;;;44.25;33.72;;;2.80;99.90;;;;;;4940863;28;89579;-32
2022/12/19 04:47:44;;;;;;;58.20;39.67;;;2.90;99.90;;;;;;4940777;28;90001;-31
2022/12/19 04:50:10;;;;;;;64.25;41.88;;;2.90;99.90;;;;;;4936717;28;89861;-30
2022/12/19 04:52:36;;;;;;;59.10;41.15;;;2.90;99.90;;;;;;4938894;28;89446;-33
2022/12/19 04:55:01;;;;;;;60.85;42.17;;;2.90;99.90;;;;;;4940946;28;90451;-31
2022/12/19 04:57:31;;;;;;;62.58;41.90;;;2.90;99.90;;;;;;4940471;28;89233;-30
2022/12/19 04:59:56;;;;;;;59.08;41.75;;;2.90;99.90;;;;;;4941025;28;89171;-32
2022/12/19 05:02:23;;;;;;;54.88;41.90;;;2.90;99.90;;;;;;4938647;28;94537;-31
2022/12/19 05:04:49;;;;;;;56.35;39.97;;;3.00;99.90;;;;;;4938868;28;95111;-31
2022/12/19 05:07:18;;;;;;;59.08;39.88;;;3.00;99.90;;;;;;4938113;28;94830;-33
2022/12/19 05:09:43;;;;;;;57.65;42.00;;;3.00;99.90;;;;;;4938322;28;93567;-31
2022/12/19 05:12:09;;;;;;;53.15;36.30;;;3.00;99.90;;;;;;4937924;28;96290;-32
2022/12/19 05:14:36;;;;;;;58.67;40.05;;;3.00;99.90;;;;;;4938000;28;95417;-31
2022/12/19 05:17:01;;;;;;;53.92;40.53;;;3.00;99.90;;;;;;4938358;28;94010;-34
2022/12/19 05:19:27;;;;;;;52.22;39.08;;;3.00;99.90;;;;;;4926325;28;93364;-32
2022/12/19 05:21:53;;;;;;;54.13;40.13;;;3.00;99.90;;;;;;4935284;28;94729;-33
2022/12/19 05:24:19;;;;;;;55.65;37.78;;;3.00;99.90;;;;;;4938409;28;94645;-30
2022/12/19 05:26:44;;;;;;;51.75;37.85;;;3.00;99.90;;;;;;4938116;28;93241;-32
2022/12/19 05:29:10;;;;;;;56.67;40.47;;;3.00;99.90;;;;;;4938175;28;93623;-32
2022/12/19 05:31:35;;;;;;;52.67;36.30;;;3.10;99.90;;;;;;4937325;28;94817;-32
2022/12/19 05:34:01;;;;;;;46.22;34.50;;;3.10;99.90;;;;;;4938049;28;93872;-31
2022/12/19 05:36:27;;;;;;;58.70;39.55;;;3.10;99.90;;;;;;4937100;28;93067;-31
2022/12/19 05:38:52;;;;;;;56.85;38.35;;;3.20;99.90;;;;;;4938003;28;93303;-30
2022/12/19 05:41:20;;;;;;;49.28;33.22;;;3.20;99.90;;;;;;4938310;28;94635;-31
2022/12/19 05:43:50;;;;;;;53.35;34.55;;;3.30;99.90;;;;;;4936898;28;94623;-32
2022/12/19 05:46:16;;;;;;;51.25;38.83;;;3.30;99.90;;;;;;4938266;28;93088;-32
2022/12/19 05:48:41;;;;;;;45.15;31.58;;;3.50;99.90;;;;;;4937538;28;93165;-31
2022/12/19 05:51:07;;;;;;;59.92;40.20;;;3.50;99.90;;;;;;4938260;28;94816;-31
2022/12/19 05:53:37;;;;;;;47.25;35.10;;;3.50;99.90;;;;;;4937001;28;94374;-33
2022/12/19 05:56:08;;;;;;;40.08;30.63;;;3.50;99.90;;;;;;4937422;28;93183;-32
2022/12/19 05:58:34;;;;;;;49.22;36.15;;;3.60;99.90;;;;;;4937133;28;93132;-30
2022/12/19 06:01:05;;;;;;;44.30;32.97;;;3.70;99.90;;;;;;4936682;28;95809;-31
2022/12/19 06:03:31;;;;;;;50.05;37.00;;;3.70;99.90;;;;;;4933915;28;94185;-30
2022/12/19 06:05:57;;;;;;;45.20;32.22;;;3.70;99.90;;;;;;4933733;28;93254;-34
2022/12/19 06:08:22;;;;;;;45.65;32.22;;;3.70;99.90;;;;;;4936015;28;93859;-31
2022/12/19 06:10:48;;;;;;;43.35;32.47;;;3.80;99.90;;;;;;4937328;28;96209;-34
2022/12/19 06:13:14;;;;;;;46.00;35.20;;;3.90;99.90;;;;;;4936414;28;94526;-31
2022/12/19 06:15:39;;;;;;;43.58;34.08;;;3.90;99.90;;;;;;4937697;28;94851;-34
2022/12/19 06:18:05;;;;;;;42.75;31.60;;;4.00;99.90;;;;;;4937477;28;92710;-33
2022/12/19 06:20:30;;;;;;;45.95;33.97;;;4.00;99.90;;;;;;4937020;28;94619;-30
2022/12/19 06:22:56;;;;;;;42.60;32.90;;;4.00;99.90;;;;;;4937415;28;94017;-31
2022/12/19 06:25:22;;;;;;;45.30;33.40;;;4.10;99.90;;;;;;4936538;28;94962;-31
2022/12/19 06:27:47;;;;;;;49.78;34.40;;;4.10;99.90;;;;;;4937220;28;92267;-31
2022/12/19 06:30:14;;;;;;;43.22;29.88;;;4.10;99.90;;;;;;4936408;28;94710;-33
2022/12/19 06:32:39;;;;;;;45.28;35.70;;;4.20;99.90;;;;;;4935350;28;94388;-32
2022/12/19 06:35:06;;;;;;;32.78;25.15;;;4.20;99.90;;;;;;4937300;28;93368;-32
2022/12/19 06:37:32;;;;;;;37.30;31.08;;;4.30;99.90;;;;;;4923564;28;93367;-32
2022/12/19 06:39:57;;;;;;;43.50;32.83;;;4.20;99.90;;;;;;4937146;28;95383;-31
2022/12/19 06:42:23;;;;;;;50.45;33.25;;;4.20;99.90;;;;;;4937217;28;96370;-32
2022/12/19 06:44:54;;;;;;;36.45;28.95;;;4.20;99.90;;;;;;4937039;28;93881;-34
2022/12/19 06:47:21;;;;;;;34.60;26.25;;;4.30;99.90;;;;;;4937073;28;93434;-31
2022/12/19 06:49:47;;;;;;;34.25;28.13;;;4.30;99.90;;;;;;4936121;28;95792;-31
2022/12/19 06:52:13;;;;;;;41.53;31.50;;;4.40;99.90;;;;;;4937280;28;95291;-30
2022/12/19 06:54:40;;;;;;;30.13;25.15;;;4.40;99.90;;;;;;4936186;28;92523;-34
2022/12/19 06:57:06;;;;;;;38.65;30.77;;;4.40;99.90;;;;;;4937135;28;94537;-36
2022/12/19 06:59:32;;;;;;;35.03;29.23;;;4.30;99.90;;;;;;4936972;28;94734;-33
2022/12/19 07:02:15;;;;;;;35.60;25.80;;;4.40;99.90;;;;;;4936796;28;94554;-32
2022/12/19 07:04:49;;;;;;;28.33;21.33;;;4.40;99.90;;;;;;4936892;28;94727;-35
2022/12/19 07:07:15;;;;;;;32.95;26.25;;;4.40;99.90;;;;;;4936578;28;91488;-33
2022/12/19 07:09:41;;;;;;;40.58;28.20;;;4.50;99.90;;;;;;4933946;28;94751;-35
2022/12/19 07:12:07;;;;;;;40.40;26.42;;;4.50;99.90;;;;;;4924139;28;94245;-33
2022/12/19 07:14:32;;;;;;;34.35;26.35;;;4.50;99.90;;;;;;4922094;28;94913;-36
2022/12/19 07:17:00;;;;;;;37.05;26.98;;;4.40;99.90;;;;;;4938681;28;93097;-35
2022/12/19 07:19:29;;;;;;;37.78;25.85;;;4.50;99.90;;;;;;4930646;28;94969;-33
2022/12/19 07:21:55;;;;;;;34.55;27.88;;;4.50;99.90;;;;;;4937123;28;94067;-32
2022/12/19 07:24:21;;;;;;;37.25;29.75;;;4.60;99.90;;;;;;4940072;28;94555;-35
2022/12/19 07:26:46;;;;;;;34.22;25.75;;;4.60;99.90;;;;;;4940056;28;93116;-34
2022/12/19 07:29:13;;;;;;;32.85;26.38;;;4.60;99.90;;;;;;4939604;28;95110;-32
2022/12/19 07:31:38;;;;;;;34.25;27.00;;;4.60;99.90;;;;;;4941185;28;94562;-32
2022/12/19 07:34:04;;;;;;;41.80;28.80;;;4.60;99.90;;;;;;4940704;28;94069;-33
2022/12/19 07:36:30;;;;;;;41.05;28.58;;;4.60;99.90;;;;;;4940595;28;94150;-36
2022/12/19 07:38:55;;;;;;;42.03;30.42;;;4.60;99.90;;;;;;4938006;28;95581;-35
2022/12/19 07:41:21;;;;;;;37.00;29.70;;;4.60;99.90;;;;;;4929000;28;97286;-35
2022/12/19 07:43:47;;;;;;;35.85;28.40;;;4.70;99.90;;;;;;4944396;28;94144;-33
2022/12/19 07:46:12;;;;;;;36.55;29.35;;;4.60;99.90;;;;;;4952439;28;93446;-35
2022/12/19 07:48:38;;;;;;;34.97;27.90;;;4.60;99.90;;;;;;4956136;28;93272;-33
2022/12/19 07:51:04;;;;;;;33.17;26.35;;;4.60;99.90;;;;;;4952667;28;95014;-33
2022/12/19 07:53:30;;;;;;;36.05;26.25;;;4.60;99.90;;;;;;4955649;28;93086;-33
2022/12/19 07:55:55;;;;;;;34.83;25.40;;;4.60;99.90;;;;;;4955572;28;93543;-33
2022/12/19 07:58:21;;;;;;;28.13;23.85;;;4.60;99.90;;;;;;4954281;28;94823;-34
2022/12/19 08:00:57;;;;;;;29.27;25.48;;;4.70;99.90;;;;;;4955960;28;94251;-30
2022/12/19 08:03:24;;;;;;;29.42;24.38;;;4.80;99.90;;;;;;4951621;28;95803;-36
2022/12/19 08:05:49;;;;;;;30.63;24.48;;;4.70;99.90;;;;;;4955672;28;93260;-33
2022/12/19 08:08:15;;;;;;;30.63;24.00;;;4.80;99.90;;;;;;4952000;28;95293;-33
2022/12/19 08:10:41;;;;;;;28.05;21.95;;;4.80;99.90;;;;;;4946537;28;95142;-34
2022/12/19 08:13:07;;;;;;;27.88;22.60;;;4.80;99.90;;;;;;4940433;28;93677;-31
2022/12/19 08:15:33;;;;;;;29.98;25.00;;;4.80;99.90;;;;;;4940177;28;92242;-33
2022/12/19 08:18:00;;;;;;;27.95;24.25;;;4.90;99.90;;;;;;4941429;28;94757;-33
2022/12/19 08:20:26;;;;;;;24.73;21.20;;;4.90;99.90;;;;;;4924852;28;94083;-35
2022/12/19 08:22:51;;;;;;;26.75;21.67;;;4.90;99.90;;;;;;4925540;28;93933;-34
2022/12/19 08:25:17;;;;;;;26.20;22.75;;;5.00;99.90;;;;;;4920045;28;93149;-34
2022/12/19 08:27:42;;;;;;;32.80;23.38;;;5.00;99.90;;;;;;4924355;28;95614;-34
2022/12/19 08:30:09;;;;;;;26.20;20.73;;;5.00;99.90;;;;;;4925745;28;95567;-32
2022/12/19 08:32:34;;;;;;;29.25;22.85;;;5.00;99.90;;;;;;4919248;28;92986;-32
2022/12/19 08:35:00;;;;;;;28.23;24.60;;;5.00;99.90;;;;;;4935086;28;94193;-34
2022/12/19 08:37:25;;;;;;;31.92;23.55;;;5.10;99.90;;;;;;4926778;28;95790;-32
2022/12/19 08:39:51;;;;;;;23.58;19.95;;;5.10;99.90;;;;;;4951068;28;94760;-32
2022/12/19 08:42:16;;;;;;;30.00;23.90;;;5.10;99.90;;;;;;4946100;28;93096;-32
2022/12/19 08:44:42;;;;;;;24.00;21.38;;;5.00;99.90;;;;;;4933259;28;93604;-34
2022/12/19 08:47:08;;;;;;;28.92;21.85;;;5.10;99.90;;;;;;4921675;28;95575;-35
2022/12/19 08:49:34;;;;;;;23.80;20.77;;;5.10;99.90;;;;;;4941142;28;95011;-32
2022/12/19 08:52:00;;;;;;;26.80;20.67;;;5.20;99.90;;;;;;4931093;28;94250;-31
2022/12/19 08:54:26;;;;;;;24.42;20.30;;;5.20;99.90;;;;;;4929758;28;92692;-33
2022/12/19 08:56:51;;;;;;;27.08;23.33;;;5.20;99.90;;;;;;4953598;28;94620;-33
2022/12/19 08:59:17;;;;;;;21.40;19.10;;;5.30;99.90;;;;;;4950796;28;93915;-33
2022/12/19 09:01:42;;;;;;;32.78;24.10;;;5.40;99.90;;;;;;4950349;28;93348;-32
2022/12/19 09:04:08;;;;;;;29.52;20.08;;;5.40;99.90;;;;;;4948100;28;92337;-32
2022/12/19 09:06:34;;;;;;;28.50;22.63;;;5.50;99.90;;;;;;4943872;28;95692;-32
2022/12/19 09:09:00;;;;;;;28.38;24.05;;;5.50;99.90;;;;;;4943584;28;94771;-32
2022/12/19 09:11:25;;;;;;;29.63;24.27;;;5.50;99.90;;;;;;4942806;28;93407;-35
2022/12/19 09:13:54;;;;;;;26.77;22.90;;;5.50;99.90;;;;;;4944083;28;93316;-31
2022/12/19 09:16:22;;;;;;;27.00;21.90;;;5.50;99.90;;;;;;4937417;28;95318;-32
2022/12/19 09:18:53;;;;;;;30.52;25.25;;;5.50;99.90;;;;;;4933237;28;95263;-32
2022/12/19 09:21:21;;;;;;;27.77;23.70;;;5.60;99.90;;;;;;4935034;28;93563;-32
2022/12/19 09:23:49;;;;;;;32.55;25.10;;;5.70;99.90;;;;;;4943477;28;94206;-32
2022/12/19 09:26:15;;;;;;;34.87;26.60;;;5.70;99.90;;;;;;4942663;28;94623;-34
2022/12/19 09:28:40;;;;;;;31.83;25.58;;;5.80;99.90;;;;;;4982709;22;93638;-31
2022/12/19 09:31:10;;;;;;;32.95;27.35;;;5.80;99.90;;;;;;4948053;28;92138;-34
2022/12/19 09:33:36;;;;;;;32.90;24.23;;;5.80;99.90;;;;;;4942259;28;92663;-32
2022/12/19 09:36:03;;;;;;;31.08;25.92;;;5.90;99.90;;;;;;4939327;28;94190;-34
2022/12/19 09:38:30;;;;;;;34.83;28.13;;;5.90;99.90;;;;;;4941895;28;94539;-34
2022/12/19 09:41:20;;;;;;;37.17;27.17;;;5.90;99.90;;;;;;4938760;28;94717;-33
2022/12/19 09:43:52;;;;;;;31.73;26.23;;;6.00;99.90;;;;;;4941171;28;92162;-32
2022/12/19 09:46:27;;;;;;;39.45;26.55;;;6.00;99.90;;;;;;4938631;28;94938;-33
2022/12/19 09:48:55;;;;;;;29.40;22.10;;;5.90;99.90;;;;;;4922229;28;94692;-36
2022/12/19 09:51:45;;;;;;;32.37;27.00;;;6.00;99.90;;;;;;4951056;28;92509;-37
2022/12/19 09:54:14;;;;;;;29.98;24.42;;;6.00;99.90;;;;;;4949287;28;93485;-35
2022/12/19 09:56:42;;;;;;;27.90;24.25;;;6.00;99.90;;;;;;4953565;28;95137;-33
2022/12/19 09:59:36;;;;;;;32.33;24.38;;;6.10;99.90;;;;;;4951010;28;93298;-33
2022/12/19 10:02:18;;;;;;;32.08;27.42;;;6.10;99.90;;;;;;4952976;28;92270;-32
2022/12/19 10:04:50;;;;;;;37.13;24.90;;;6.20;99.90;;;;;;4949065;28;94577;-33
2022/12/19 10:07:19;;;;;;;33.75;26.27;;;6.20;99.90;;;;;;4949621;28;97019;-35
2022/12/19 10:09:44;;;;;;;30.00;24.33;;;6.30;99.90;;;;;;4941287;28;95591;-32
2022/12/19 10:12:29;;;;;;;31.25;25.10;;;6.20;99.90;;;;;;4919886;28;92354;-33
2022/12/19 10:15:14;;;;;;;27.50;24.05;;;6.30;99.90;;;;;;4923599;28;92995;-33
2022/12/19 10:17:53;;;;;;;26.42;23.52;;;6.30;99.90;;;;;;4946749;28;94712;-34
2022/12/19 10:20:37;;;;;;;25.85;21.10;;;6.30;99.90;;;;;;4921379;28;94702;-35
2022/12/19 10:23:39;;;;;;;29.60;24.00;;;6.30;99.90;;;;;;4931428;28;94080;-33
2022/12/19 10:26:28;;;;;;;26.60;21.73;;;6.30;99.90;;;;;;4939302;28;92596;-33
2022/12/19 10:28:59;;;;;;;24.38;20.90;;;6.30;99.90;;;;;;4945372;28;94439;-34
2022/12/19 10:31:32;;;;;;;25.42;22.40;;;6.40;99.90;;;;;;4949591;28;94229;-34
2022/12/19 10:34:01;;;;;;;27.63;21.77;;;6.40;99.90;;;;;;4945546;28;93039;-36
2022/12/19 10:36:30;;;;;;;27.35;21.52;;;6.50;99.90;;;;;;4948835;28;93863;-33
2022/12/19 10:39:05;;;;;;;21.92;19.60;;;6.50;99.90;;;;;;4946675;28;94709;-33
2022/12/19 10:41:31;;;;;;;25.80;22.10;;;6.50;99.90;;;;;;4950000;28;94573;-34
2022/12/19 10:44:16;;;;;;;26.77;21.50;;;6.50;99.90;;;;;;4948579;28;94479;-32
2022/12/19 10:46:47;;;;;;;25.20;20.13;;;6.50;99.90;;;;;;4949378;28;93209;-32
2022/12/19 10:49:16;;;;;;;26.73;19.23;;;6.60;99.90;;;;;;4945541;28;94378;-32
2022/12/19 10:51:54;;;;;;;22.85;19.15;;;6.60;99.90;;;;;;4931397;28;94549;-33
2022/12/19 10:54:22;;;;;;;23.63;19.15;;;6.60;99.90;;;;;;4945137;28;94487;-33
2022/12/19 10:56:47;;;;;;;23.00;20.60;;;6.70;99.90;;;;;;4949761;28;94379;-36
2022/12/19 10:59:18;;;;;;;23.88;19.45;;;6.70;99.90;;;;;;4946836;28;95244;-34
2022/12/19 11:01:45;;;;;;;21.05;17.75;;;6.70;99.90;;;;;;4948331;28;95385;-34
2022/12/19 11:04:13;;;;;;;21.20;17.80;;;6.70;99.90;;;;;;4948369;28;93450;-34
2022/12/19 11:06:42;;;;;;;;;;;6.70;99.90;;;;;;4947201;28;92986;-33
2022/12/19 11:09:28;;;;;;;23.42;20.15;;;6.70;99.90;;;;;;4951429;28;96697;-34
2022/12/19 11:12:05;;;;;;;20.60;18.40;;;6.80;99.90;;;;;;4947711;28;94814;-36
2022/12/19 11:14:31;;;;;;;23.45;19.42;;;6.80;99.90;;;;;;4947375;28;93836;-35
2022/12/19 11:16:57;;;;;;;22.35;18.17;;;6.90;99.90;;;;;;4947707;28;91603;-33
2022/12/19 11:19:30;;;;;;;19.80;17.48;;;6.90;99.90;;;;;;4930037;28;95051;-34
2022/12/19 11:22:06;;;;;;;20.23;18.25;;;6.90;99.90;;;;;;4932116;28;94809;-33
2022/12/19 11:24:40;;;;;;;21.73;18.25;;;7.00;99.90;;;;;;4933692;28;95084;-32
2022/12/19 11:27:29;;;;;;;19.25;17.15;;;6.90;99.90;;;;;;4934163;28;94501;-33
2022/12/19 11:29:56;;;;;;;23.20;20.02;;;6.90;99.90;;;;;;4935084;28;94515;-32
2022/12/19 11:32:44;;;;;;;20.98;17.33;;;6.90;99.90;;;;;;4934388;28;95209;-32
2022/12/19 11:35:21;;;;;;;18.35;16.52;;;6.90;99.90;;;;;;4933405;28;92151;-34
2022/12/19 11:37:52;;;;;;;20.17;17.13;;;7.00;99.90;;;;;;4933617;28;92853;-34
2022/12/19 11:40:48;;;;;;;22.67;18.30;;;7.00;99.90;;;;;;4934426;28;94431;-33
2022/12/19 11:43:37;;;;;;;19.65;17.40;;;7.00;99.90;;;;;;4934689;28;94168;-34
2022/12/19 11:46:23;;;;;;;19.55;17.63;;;7.00;99.90;;;;;;4934288;28;92831;-33
2022/12/19 11:49:12;;;;;;;23.27;17.77;;;7.00;99.90;;;;;;4934003;28;93288;-36
2022/12/19 11:51:49;;;;;;;19.85;17.77;;;7.10;99.90;;;;;;4933326;28;95500;-35
2022/12/19 11:54:19;;;;;;;21.85;19.48;;;7.20;99.90;;;;;;4934904;28;95143;-32
2022/12/19 11:56:45;;;;;;;19.00;17.02;;;7.10;99.90;;;;;;4934013;28;92167;-35
2022/12/19 11:59:33;;;;;;;20.20;18.08;;;7.20;99.90;;;;;;4934082;28;94807;-33
2022/12/19 12:02:07;;;;;;;;;;;7.20;99.90;;;;;;4933800;28;94735;-34
2022/12/19 12:04:51;;;;;;;25.25;19.00;;;7.30;99.90;;;;;;4947781;28;93671;-33
2022/12/19 12:07:17;;;;;;;20.58;17.98;;;7.20;99.90;;;;;;4950524;28;93520;-35
2022/12/19 12:10:01;;;;;;;23.77;17.20;;;7.20;99.90;;;;;;4950187;28;91428;-35
2022/12/19 12:12:49;;;;;;;17.50;15.68;;;7.20;99.90;;;;;;4950046;28;94837;-33
2022/12/19 12:15:31;;;;;;;20.65;16.70;;;7.30;99.90;;;;;;4948862;28;93810;-32
2022/12/19 12:18:19;;;;;;;18.42;16.40;;;7.30;99.90;;;;;;4945809;28;93796;-32
2022/12/19 12:21:29;;;;;;;21.83;19.50;;;7.40;99.90;;;;;;4948320;28;93060;-32
2022/12/19 12:24:23;;;;;;;20.63;17.83;;;7.30;99.90;;;;;;4950211;28;94523;-36
2022/12/19 12:27:11;;;;;;;17.38;15.52;;;7.40;99.90;;;;;;4965283;28;94642;-33
2022/12/19 12:29:57;;;;;;;21.10;16.75;;;7.30;99.90;;;;;;4936672;28;92909;-32
2022/12/19 12:32:56;;;;;;;18.42;16.48;;;7.40;99.90;;;;;;4965977;28;92498;-35
2022/12/19 12:35:28;;;;;;;21.70;19.50;;;7.30;99.90;;;;;;4953615;28;94201;-32
2022/12/19 12:38:25;;;;;;;18.55;16.60;;;7.40;99.90;;;;;;4944917;28;94764;-33
2022/12/19 12:40:54;;;;;;;19.02;15.88;;;7.40;99.90;;;;;;4946670;28;93935;-33
2022/12/19 12:43:32;;;;;;;18.92;15.98;;;7.40;99.90;;;;;;4947180;28;92984;-34
2022/12/19 12:45:57;;;;;;;19.50;17.07;;;7.50;99.90;;;;;;4942169;28;97198;-33
2022/12/19 12:48:32;;;;;;;20.38;16.33;;;7.50;99.90;;;;;;4945674;28;95470;-34
2022/12/19 12:51:00;;;;;;;17.30;14.82;;;7.50;99.90;;;;;;4944540;28;93718;-36
2022/12/19 12:53:32;;;;;;;20.90;17.83;;;7.50;99.90;;;;;;4946028;28;94153;-32
2022/12/19 12:56:00;;;;;;;16.88;15.15;;;7.50;99.90;;;;;;4945108;28;94289;-33
2022/12/19 12:58:45;;;;;;;17.35;15.52;;;7.60;99.90;;;;;;4944406;28;94439;-34
2022/12/19 13:01:31;;;;;;;18.50;16.60;;;7.60;99.90;;;;;;4943204;28;94128;-33